createdAt,value
2022-07-28T00:01:30.306Z,1.48
2022-07-28T00:03:56.708Z,1.40
2022-07-28T00:06:23.225Z,1.30
2022-07-28T00:08:49.639Z,1.70
2022-07-28T00:11:16.387Z,1.40
2022-07-28T00:13:42.827Z,1.80
2022-07-28T00:16:11.972Z,1.45
2022-07-28T00:18:38.442Z,1.65
2022-07-28T00:21:04.887Z,1.55
2022-07-28T00:23:38.658Z,1.60
2022-07-28T00:26:06.286Z,1.57
2022-07-28T00:28:32.745Z,1.77
2022-07-28T00:31:05.578Z,1.67
2022-07-28T00:33:36.598Z,1.73
2022-07-28T00:36:03.850Z,1.52
2022-07-28T00:38:30.264Z,1.63
2022-07-28T00:41:11.917Z,1.45
2022-07-28T00:43:38.256Z,1.67
2022-07-28T00:46:04.735Z,2.25
2022-07-28T00:48:31.153Z,2.08
2022-07-28T00:50:57.678Z,1.70
2022-07-28T00:53:24.269Z,1.92
2022-07-28T00:56:03.625Z,1.80
2022-07-28T00:58:33.611Z,1.70
2022-07-28T01:01:00.119Z,1.90
2022-07-28T01:03:27.185Z,1.67
2022-07-28T01:06:06.004Z,1.67
2022-07-28T01:08:38.688Z,1.90
2022-07-28T01:11:06.972Z,2.20
2022-07-28T01:13:52.188Z,1.98
2022-07-28T01:16:23.625Z,1.80
2022-07-28T01:19:04.253Z,1.95
2022-07-28T01:21:35.122Z,2.33
2022-07-28T01:24:20.621Z,2.45
2022-07-28T01:26:50.095Z,1.95
2022-07-28T01:29:32.767Z,1.98
2022-07-28T01:32:28.799Z,2.00
2022-07-28T01:35:09.844Z,2.17
2022-07-28T01:37:40.301Z,2.33
2022-07-28T01:40:10.162Z,2.25
2022-07-28T01:42:41.632Z,2.10
2022-07-28T01:45:08.501Z,2.00
2022-07-28T01:47:35.477Z,1.83
2022-07-28T01:50:06.572Z,1.98
2022-07-28T01:52:34.473Z,1.95
2022-07-28T01:55:02.099Z,2.20
2022-07-28T01:57:32.845Z,2.03
2022-07-28T01:59:59.946Z,1.70
2022-07-28T02:02:27.768Z,2.40
2022-07-28T02:04:54.872Z,2.00
2022-07-28T02:07:22.442Z,1.92
2022-07-28T02:09:49.274Z,1.70
2022-07-28T02:12:17.421Z,1.98
2022-07-28T02:14:48.801Z,2.03
2022-07-28T02:17:16.540Z,1.92
2022-07-28T02:19:44.881Z,2.20
2022-07-28T02:22:12.069Z,1.90
2022-07-28T02:24:38.481Z,2.50
2022-07-28T02:27:21.095Z,2.53
2022-07-28T02:29:53.130Z,2.47
2022-07-28T02:32:27.263Z,2.13
2022-07-28T02:34:58.338Z,2.40
2022-07-28T02:37:26.021Z,2.40
2022-07-28T02:40:00.329Z,2.63
2022-07-28T02:42:30.742Z,2.38
2022-07-28T02:44:58.507Z,2.10
2022-07-28T02:47:26.991Z,2.00
2022-07-28T02:49:54.628Z,2.00
2022-07-28T02:52:24.006Z,2.30
2022-07-28T02:54:51.688Z,2.05
2022-07-28T02:57:18.793Z,2.35
2022-07-28T02:59:46.159Z,2.00
2022-07-28T03:02:13.225Z,1.92
2022-07-28T03:04:58.831Z,1.90
2022-07-28T03:07:26.397Z,2.00
2022-07-28T03:09:53.040Z,2.20
2022-07-28T03:12:19.524Z,2.40
2022-07-28T03:14:46.008Z,2.00
2022-07-28T03:17:12.818Z,1.90
2022-07-28T03:19:39.307Z,2.00
2022-07-28T03:22:05.841Z,2.15
2022-07-28T03:24:37.871Z,2.40
2022-07-28T03:27:13.306Z,2.10
2022-07-28T03:29:40.533Z,2.40
2022-07-28T03:32:07.529Z,2.33
2022-07-28T03:34:37.474Z,2.05
2022-07-28T03:37:06.816Z,2.35
2022-07-28T03:39:35.989Z,2.38
2022-07-28T03:42:03.524Z,2.92
2022-07-28T03:44:30.382Z,2.30
2022-07-28T03:46:56.850Z,2.47
2022-07-28T03:49:25.729Z,2.67
2022-07-28T03:51:52.095Z,3.15
2022-07-28T03:54:18.638Z,2.70
2022-07-28T03:56:45.011Z,2.88
2022-07-28T03:59:11.434Z,2.70
2022-07-28T04:01:38.430Z,2.63
2022-07-28T04:04:05.626Z,2.20
2022-07-28T04:06:32.119Z,1.98
2022-07-28T04:08:58.581Z,2.92
2022-07-28T04:11:24.990Z,2.70
2022-07-28T04:13:51.367Z,2.58
2022-07-28T04:16:17.860Z,2.05
2022-07-28T04:18:44.520Z,2.20
2022-07-28T04:21:10.878Z,2.35
2022-07-28T04:23:37.342Z,2.25
2022-07-28T04:26:03.840Z,2.53
2022-07-28T04:28:30.219Z,2.10
2022-07-28T04:30:56.745Z,2.13
2022-07-28T04:33:23.199Z,2.15
2022-07-28T04:35:52.541Z,2.50
2022-07-28T04:38:20.268Z,2.50
2022-07-28T04:40:50.055Z,2.03
2022-07-28T04:43:16.515Z,2.72
2022-07-28T04:45:53.193Z,2.50
2022-07-28T04:48:20.882Z,2.85
2022-07-28T04:50:47.359Z,2.72
2022-07-28T04:53:13.897Z,3.17
2022-07-28T04:55:42.640Z,3.35
2022-07-28T04:58:09.428Z,2.85
2022-07-28T05:00:35.940Z,4.55
2022-07-28T05:03:03.661Z,5.45
2022-07-28T05:05:30.150Z,3.55
2022-07-28T05:07:56.863Z,3.20
2022-07-28T05:10:23.313Z,4.80
2022-07-28T05:12:50.506Z,5.10
2022-07-28T05:15:17.081Z,3.88
2022-07-28T05:17:43.574Z,3.08
2022-07-28T05:20:10.286Z,3.20
2022-07-28T05:22:46.020Z,2.97
2022-07-28T05:27:38.793Z,2.67
2022-07-28T05:30:05.632Z,2.78
2022-07-28T05:32:32.030Z,3.10
2022-07-28T05:34:59.467Z,2.45
2022-07-28T05:37:25.842Z,2.90
2022-07-28T05:39:52.207Z,2.75
2022-07-28T05:42:18.646Z,2.47
2022-07-28T05:44:45.003Z,2.88
2022-07-28T05:47:11.399Z,2.70
2022-07-28T05:49:38.924Z,2.75
2022-07-28T05:52:05.420Z,2.85
2022-07-28T05:54:31.836Z,2.22
2022-07-28T05:56:58.196Z,2.88
2022-07-28T05:59:24.622Z,2.35
2022-07-28T06:01:51.056Z,2.10
2022-07-28T06:04:26.556Z,2.50
2022-07-28T06:06:54.760Z,2.20
2022-07-28T06:09:21.172Z,2.35
2022-07-28T06:11:47.709Z,2.30
2022-07-28T06:14:14.372Z,1.90
2022-07-28T06:16:41.198Z,2.00
2022-07-28T06:19:07.915Z,2.28
2022-07-28T06:21:34.344Z,2.03
2022-07-28T06:24:00.805Z,2.30
2022-07-28T06:26:27.267Z,1.73
2022-07-28T06:28:53.685Z,1.90
2022-07-28T06:31:20.090Z,2.15
2022-07-28T06:33:46.542Z,1.83
2022-07-28T06:36:12.908Z,1.90
2022-07-28T06:38:39.306Z,2.35
2022-07-28T06:41:05.740Z,2.30
2022-07-28T06:43:36.825Z,2.13
2022-07-28T06:46:05.398Z,2.30
2022-07-28T06:48:31.880Z,1.90
2022-07-28T06:50:59.786Z,2.20
2022-07-28T06:53:26.814Z,2.15
2022-07-28T06:55:58.833Z,2.45
2022-07-28T06:58:25.451Z,2.13
2022-07-28T07:00:51.942Z,2.13
2022-07-28T07:03:18.416Z,2.22
2022-07-28T07:05:44.843Z,2.08
2022-07-28T07:08:15.405Z,2.28
2022-07-28T07:10:41.791Z,2.08
2022-07-28T07:13:08.302Z,2.40
2022-07-28T07:15:35.175Z,2.10
2022-07-28T07:18:01.704Z,2.28
2022-07-28T07:20:28.288Z,2.40
2022-07-28T07:22:55.555Z,2.42
2022-07-28T07:25:22.041Z,2.35
2022-07-28T07:27:48.752Z,2.25
2022-07-28T07:30:16.102Z,2.17
2022-07-28T07:32:42.824Z,2.10
2022-07-28T07:35:09.551Z,2.38
2022-07-28T07:37:35.954Z,1.77
2022-07-28T07:40:03.779Z,1.85
2022-07-28T07:42:30.251Z,2.20
2022-07-28T07:44:56.646Z,2.00
2022-07-28T07:47:23.156Z,1.83
2022-07-28T07:49:49.550Z,2.05
2022-07-28T07:52:15.984Z,1.83
2022-07-28T07:54:42.385Z,1.77
2022-07-28T07:57:09.357Z,1.95
2022-07-28T07:59:35.818Z,1.80
2022-07-28T08:02:02.379Z,1.75
2022-07-28T08:04:31.748Z,1.73
2022-07-28T08:07:04.562Z,1.80
2022-07-28T08:09:32.183Z,1.92
2022-07-28T08:11:58.548Z,1.85
2022-07-28T08:14:25.286Z,1.75
2022-07-28T08:16:52.333Z,1.45
2022-07-28T08:19:21.449Z,1.58
2022-07-28T08:21:50.645Z,1.38
2022-07-28T08:24:32.483Z,1.70
2022-07-28T08:26:59.585Z,0.77
2022-07-28T08:29:26.256Z,0.93
2022-07-28T08:31:52.794Z,1.00
2022-07-28T08:34:31.309Z,1.15
2022-07-28T08:37:01.512Z,1.50
2022-07-28T08:39:27.919Z,1.05
2022-07-28T08:41:58.917Z,0.95
2022-07-28T08:44:28.045Z,1.10
2022-07-28T08:46:54.688Z,1.02
2022-07-28T08:49:21.257Z,1.00
2022-07-28T08:51:48.599Z,1.27
2022-07-28T08:54:17.121Z,1.35
2022-07-28T08:56:48.051Z,1.40
2022-07-28T08:59:14.770Z,1.50
2022-07-28T09:01:41.383Z,1.17
2022-07-28T09:04:08.696Z,1.33
2022-07-28T09:06:36.613Z,1.30
2022-07-28T09:09:03.367Z,1.30
2022-07-28T09:11:29.799Z,1.40
2022-07-28T09:13:56.232Z,1.48
2022-07-28T09:16:22.797Z,1.30
2022-07-28T09:18:49.271Z,1.15
2022-07-28T09:21:15.786Z,1.40
2022-07-28T09:23:44.527Z,1.30
2022-07-28T09:26:12.583Z,1.33
2022-07-28T09:28:55.937Z,1.33
2022-07-28T09:31:23.454Z,1.42
2022-07-28T09:34:03.691Z,1.30
2022-07-28T09:36:30.895Z,1.38
2022-07-28T09:38:57.385Z,1.40
2022-07-28T09:41:24.015Z,1.40
2022-07-28T09:43:54.886Z,1.17
2022-07-28T09:46:24.376Z,1.20
2022-07-28T09:48:51.345Z,1.42
2022-07-28T09:51:21.915Z,1.17
2022-07-28T09:53:48.405Z,1.38
2022-07-28T09:56:14.993Z,1.42
2022-07-28T09:58:41.844Z,1.40
2022-07-28T10:01:12.379Z,1.50
2022-07-28T10:03:40.752Z,1.27
2022-07-28T10:06:11.639Z,1.20
2022-07-28T10:08:48.675Z,1.40
2022-07-28T10:11:16.494Z,1.38
2022-07-28T10:13:59.835Z,1.15
2022-07-28T10:16:27.563Z,1.38
2022-07-28T10:18:54.834Z,1.48
2022-07-28T10:21:23.034Z,1.40
2022-07-28T10:23:50.928Z,1.35
2022-07-28T10:26:20.100Z,1.20
2022-07-28T10:28:50.693Z,1.73
2022-07-28T10:31:31.564Z,1.40
2022-07-28T10:33:59.370Z,1.52
2022-07-28T10:36:26.299Z,1.50
2022-07-28T10:38:57.712Z,1.67
2022-07-28T10:41:27.027Z,1.65
2022-07-28T10:43:56.528Z,1.75
2022-07-28T10:46:23.360Z,1.80
2022-07-28T10:48:50.006Z,1.42
2022-07-28T10:51:17.079Z,1.70
2022-07-28T10:53:51.333Z,1.60
2022-07-28T10:56:21.913Z,1.80
2022-07-28T10:58:48.335Z,1.55
2022-07-28T11:01:48.433Z,1.90
2022-07-28T11:04:52.478Z,1.70
2022-07-28T11:07:19.584Z,1.73
2022-07-28T11:09:49.355Z,2.20
2022-07-28T11:12:19.195Z,1.60
2022-07-28T11:14:46.470Z,1.55
2022-07-28T11:17:13.521Z,1.65
2022-07-28T11:22:34.173Z,1.60
2022-07-28T11:25:18.064Z,1.70
2022-07-28T11:30:33.621Z,1.45
2022-07-28T11:33:00.761Z,1.73
2022-07-28T11:35:31.104Z,1.60
2022-07-28T11:38:00.535Z,1.70
2022-07-28T11:40:30.648Z,1.52
2022-07-28T11:43:15.640Z,1.60
2022-07-28T11:45:54.085Z,1.50
2022-07-28T11:48:23.544Z,2.13
2022-07-28T11:51:05.255Z,1.98
2022-07-28T11:53:35.765Z,1.80
2022-07-28T11:56:06.080Z,1.90
2022-07-28T11:58:32.619Z,1.98
2022-07-28T12:01:17.757Z,1.90
2022-07-28T12:03:50.260Z,2.00
2022-07-28T12:06:28.804Z,2.15
2022-07-28T12:09:06.414Z,2.15
2022-07-28T12:11:42.434Z,2.30
2022-07-28T12:14:08.867Z,3.00
2022-07-28T12:16:36.205Z,2.90
2022-07-28T12:19:03.734Z,2.63
2022-07-28T12:21:45.722Z,2.53
2022-07-28T12:24:14.080Z,2.90
2022-07-28T12:26:41.918Z,2.97
2022-07-28T12:29:12.577Z,2.88
2022-07-28T12:31:39.419Z,3.05
2022-07-28T12:34:12.341Z,3.28
2022-07-28T12:36:39.150Z,2.95
2022-07-28T12:39:10.908Z,3.08
2022-07-28T12:41:39.587Z,2.40
2022-07-28T12:44:06.178Z,2.92
2022-07-28T12:46:33.069Z,2.72
2022-07-28T12:49:00.191Z,2.75
2022-07-28T12:51:30.727Z,2.85
2022-07-28T12:53:57.192Z,2.53
2022-07-28T12:56:23.615Z,2.95
2022-07-28T12:58:56.480Z,2.97
2022-07-28T13:01:23.003Z,3.67
2022-07-28T13:03:53.814Z,3.28
2022-07-28T13:06:20.493Z,3.55
2022-07-28T13:08:47.611Z,3.55
2022-07-28T13:11:43.204Z,3.50
2022-07-28T13:14:02.495Z,3.47
2022-07-28T13:16:30.115Z,3.42
2022-07-28T13:18:58.464Z,4.20
2022-07-28T13:21:37.654Z,3.85
2022-07-28T13:24:04.485Z,4.82
2022-07-28T13:26:34.110Z,4.60
2022-07-28T13:29:04.404Z,4.25
2022-07-28T13:31:41.712Z,4.40
2022-07-28T13:34:09.499Z,5.18
2022-07-28T13:36:36.600Z,4.95
2022-07-28T13:39:03.976Z,4.75
2022-07-28T13:41:57.114Z,5.22
2022-07-28T13:44:17.401Z,4.80
2022-07-28T13:46:45.462Z,4.82
2022-07-28T13:49:13.732Z,5.32
2022-07-28T13:51:40.286Z,5.75
2022-07-28T13:54:08.281Z,5.75
2022-07-28T13:56:39.730Z,6.03
2022-07-28T13:59:07.356Z,5.80
2022-07-28T14:01:35.957Z,5.47
2022-07-28T14:04:03.398Z,5.70
2022-07-28T14:06:29.867Z,6.18
2022-07-28T14:08:56.524Z,6.32
2022-07-28T14:11:23.094Z,6.68
2022-07-28T14:13:52.162Z,5.93
2022-07-28T14:16:22.627Z,6.22
2022-07-28T14:18:49.510Z,6.45
2022-07-28T14:21:16.072Z,6.97
2022-07-28T14:23:42.650Z,6.57
2022-07-28T14:26:34.442Z,7.00
2022-07-28T14:28:55.513Z,7.57
2022-07-28T14:31:22.430Z,7.90
2022-07-28T14:33:54.322Z,8.10
2022-07-28T14:36:21.913Z,8.15
2022-07-28T14:38:55.482Z,8.82
2022-07-28T14:41:21.987Z,8.38
2022-07-28T14:43:48.651Z,8.02
2022-07-28T14:46:21.062Z,8.10
2022-07-28T14:48:48.026Z,9.13
2022-07-28T14:51:14.792Z,10.15
2022-07-28T14:53:49.947Z,9.43
2022-07-28T14:56:18.134Z,10.75
2022-07-28T14:58:44.609Z,9.40
2022-07-28T15:01:11.105Z,8.95
2022-07-28T15:03:37.611Z,9.23
2022-07-28T15:06:09.933Z,10.35
2022-07-28T15:08:36.441Z,11.85
2022-07-28T15:11:03.242Z,12.05
2022-07-28T15:13:29.692Z,12.95
2022-07-28T15:15:56.378Z,13.73
2022-07-28T15:18:22.800Z,13.18
2022-07-28T15:20:51.046Z,13.45
2022-07-28T15:23:17.561Z,13.30
2022-07-28T15:25:46.359Z,12.00
2022-07-28T15:28:17.575Z,10.23
2022-07-28T15:30:51.366Z,7.80
2022-07-28T15:33:19.715Z,9.43
2022-07-28T15:35:57.748Z,8.80
2022-07-28T15:38:25.950Z,10.73
2022-07-28T15:40:52.902Z,13.05
2022-07-28T15:43:19.576Z,14.75
2022-07-28T15:45:50.411Z,13.77
2022-07-28T15:48:17.133Z,14.48
2022-07-28T15:50:48.856Z,14.27
2022-07-28T15:53:18.500Z,12.75
2022-07-28T15:55:50.566Z,12.60
2022-07-28T15:58:17.847Z,10.90
2022-07-28T16:00:44.456Z,10.43
2022-07-28T16:03:11.585Z,9.10
2022-07-28T16:05:38.156Z,8.25
2022-07-28T16:08:04.771Z,7.22
2022-07-28T16:10:33.908Z,8.27
2022-07-28T16:13:01.623Z,7.35
2022-07-28T16:15:28.152Z,7.28
2022-07-28T16:17:54.530Z,6.45
2022-07-28T16:20:21.164Z,6.57
2022-07-28T16:22:47.659Z,6.80
2022-07-28T16:25:17.691Z,6.93
2022-07-28T16:27:44.498Z,7.20
2022-07-28T16:30:11.704Z,7.10
2022-07-28T16:32:38.985Z,7.18
2022-07-28T16:35:06.772Z,6.90
2022-07-28T16:37:33.991Z,6.93
2022-07-28T16:40:00.451Z,6.90
2022-07-28T16:42:26.916Z,6.18
2022-07-28T16:44:53.353Z,6.55
2022-07-28T16:47:19.815Z,5.25
2022-07-28T16:49:46.527Z,5.10
2022-07-28T16:52:13.700Z,4.32
2022-07-28T16:54:40.106Z,3.70
2022-07-28T16:57:07.358Z,3.72
2022-07-28T16:59:37.566Z,3.53
2022-07-28T17:02:14.539Z,3.40
2022-07-28T17:04:40.991Z,3.50
2022-07-28T17:07:08.270Z,3.28
2022-07-28T17:09:34.716Z,2.70
2022-07-28T17:12:01.325Z,2.85
2022-07-28T17:14:27.702Z,3.13
2022-07-28T17:16:54.136Z,2.58
2022-07-28T17:19:22.166Z,2.70
2022-07-28T17:21:48.811Z,3.15
2022-07-28T17:24:15.979Z,2.72
2022-07-28T17:29:29.032Z,2.10
2022-07-28T17:31:55.437Z,2.10
2022-07-28T17:34:21.881Z,2.17
2022-07-28T17:36:48.450Z,2.38
2022-07-28T17:39:14.940Z,2.00
2022-07-28T17:41:41.700Z,2.00
2022-07-28T17:44:08.210Z,2.00
2022-07-28T17:46:35.099Z,1.98
2022-07-28T17:49:02.344Z,2.10
2022-07-28T17:51:28.980Z,1.80
2022-07-28T17:53:55.651Z,2.17
2022-07-28T17:56:22.308Z,2.22
2022-07-28T17:58:48.808Z,1.60
2022-07-28T18:01:15.481Z,1.85
2022-07-28T18:03:58.443Z,1.70
2022-07-28T18:06:27.376Z,1.70
2022-07-28T18:08:53.808Z,1.75
2022-07-28T18:11:20.238Z,1.90
2022-07-28T18:14:04.028Z,1.45
2022-07-28T18:16:31.351Z,1.50
2022-07-28T18:18:57.831Z,1.58
2022-07-28T18:21:26.401Z,1.95
2022-07-28T18:23:52.809Z,1.63
2022-07-28T18:26:21.981Z,1.98
2022-07-28T18:28:48.674Z,1.60
2022-07-28T18:31:15.198Z,1.67
2022-07-28T18:33:41.643Z,1.35
2022-07-28T18:36:08.128Z,1.92
2022-07-28T18:38:34.554Z,1.90
2022-07-28T18:41:01.122Z,1.40
2022-07-28T18:43:27.790Z,1.50
2022-07-28T18:45:54.410Z,1.52
2022-07-28T18:48:21.061Z,1.70
2022-07-28T18:50:47.756Z,1.48
2022-07-28T18:53:14.139Z,1.85
2022-07-28T18:55:40.537Z,1.90
2022-07-28T18:58:06.988Z,1.80
2022-07-28T19:00:33.846Z,1.75
2022-07-28T19:03:01.517Z,1.50
2022-07-28T19:05:37.008Z,1.70
2022-07-28T19:12:56.631Z,1.70
2022-07-28T19:15:23.248Z,1.75
2022-07-28T19:18:10.065Z,1.80
2022-07-28T19:20:36.142Z,2.20
2022-07-28T19:23:05.318Z,1.98
2022-07-28T19:25:32.242Z,1.98
2022-07-28T19:27:58.813Z,1.85
2022-07-28T19:30:25.227Z,1.88
2022-07-28T19:32:51.649Z,2.00
2022-07-28T19:35:18.140Z,1.75
2022-07-28T19:37:44.803Z,1.50
2022-07-28T19:40:11.914Z,1.88
2022-07-28T19:42:38.303Z,1.70
2022-07-28T19:45:05.324Z,1.80
2022-07-28T19:47:32.005Z,1.90
2022-07-28T19:50:04.972Z,1.67
2022-07-28T19:52:31.514Z,1.90
2022-07-28T19:54:57.887Z,1.70
2022-07-28T19:57:24.856Z,2.00
2022-07-28T19:59:51.298Z,1.70
2022-07-28T20:02:17.880Z,1.77
2022-07-28T20:04:44.409Z,1.63
2022-07-28T20:07:10.816Z,1.90
2022-07-28T20:09:37.250Z,1.80
2022-07-28T20:12:03.869Z,1.67
2022-07-28T20:14:30.371Z,1.50
2022-07-28T20:16:56.887Z,2.00
2022-07-28T20:19:23.503Z,1.42
2022-07-28T20:21:49.976Z,1.85
2022-07-28T20:24:19.378Z,1.90
2022-07-28T20:26:46.147Z,1.98
2022-07-28T20:29:12.607Z,1.83
2022-07-28T20:31:39.071Z,1.70
2022-07-28T20:34:06.924Z,1.67
2022-07-28T20:36:36.407Z,1.67
2022-07-28T20:39:15.726Z,1.80
2022-07-28T20:41:49.229Z,2.13
2022-07-28T20:44:28.739Z,2.10
2022-07-28T20:46:58.383Z,2.15
2022-07-28T20:49:24.873Z,2.20
2022-07-28T20:51:51.532Z,2.20
2022-07-28T20:54:18.840Z,2.20
2022-07-28T20:56:45.396Z,2.42
2022-07-28T20:59:11.787Z,2.17
2022-07-28T21:01:38.322Z,1.98
2022-07-28T21:04:04.909Z,2.13
2022-07-28T21:06:31.909Z,1.90
2022-07-28T21:09:00.632Z,2.03
2022-07-28T21:11:27.381Z,2.45
2022-07-28T21:13:54.012Z,2.08
2022-07-28T21:16:20.507Z,1.88
2022-07-28T21:18:46.976Z,1.80
2022-07-28T21:21:13.672Z,1.60
2022-07-28T21:23:40.286Z,1.88
2022-07-28T21:26:10.575Z,2.03
2022-07-28T21:28:55.313Z,1.95
2022-07-28T21:31:24.428Z,1.70
2022-07-28T21:33:51.129Z,1.50
2022-07-28T21:36:17.808Z,1.70
2022-07-28T21:38:50.317Z,1.50
2022-07-28T21:41:18.631Z,2.03
2022-07-28T21:43:45.129Z,2.85
2022-07-28T21:46:11.796Z,2.15
2022-07-28T21:48:38.391Z,1.77
2022-07-28T21:51:04.974Z,1.48
2022-07-28T21:53:50.530Z,1.70
2022-07-28T21:56:17.068Z,1.85
2022-07-28T21:58:44.044Z,1.92
2022-07-28T22:01:10.482Z,1.52
2022-07-28T22:03:39.904Z,1.92
2022-07-28T22:06:06.545Z,1.75
2022-07-28T22:08:33.983Z,1.45
2022-07-28T22:11:00.526Z,1.52
2022-07-28T22:13:27.104Z,1.67
2022-07-28T22:15:54.954Z,1.90
2022-07-28T22:18:21.397Z,1.85
2022-07-28T22:20:47.887Z,1.55
2022-07-28T22:23:28.799Z,1.80
2022-07-28T22:25:56.351Z,2.10
2022-07-28T22:28:29.418Z,1.83
2022-07-28T22:30:56.874Z,1.88
2022-07-28T22:33:23.249Z,1.90
2022-07-28T22:35:49.722Z,1.80
2022-07-28T22:38:16.144Z,1.50
2022-07-28T22:40:42.594Z,1.63
2022-07-28T22:43:09.027Z,1.52
2022-07-28T22:45:49.799Z,1.92
2022-07-28T22:48:17.861Z,1.88
2022-07-28T22:50:44.570Z,1.83
2022-07-28T22:53:13.226Z,1.55
2022-07-28T22:55:39.972Z,1.90
2022-07-28T22:58:06.629Z,1.75
2022-07-28T23:00:36.183Z,1.60
2022-07-28T23:03:03.187Z,1.58
2022-07-28T23:05:30.374Z,1.70
2022-07-28T23:07:57.559Z,1.70
2022-07-28T23:10:25.198Z,1.90
2022-07-28T23:12:51.628Z,1.85
2022-07-28T23:15:18.180Z,1.60
2022-07-28T23:17:44.678Z,1.52
2022-07-28T23:20:11.275Z,1.90
2022-07-28T23:22:38.061Z,1.70
2022-07-28T23:25:04.764Z,1.73
2022-07-28T23:27:31.175Z,2.00
2022-07-28T23:29:57.553Z,1.40
2022-07-28T23:32:23.907Z,1.45
2022-07-28T23:34:50.309Z,1.70
2022-07-28T23:37:16.942Z,1.70
2022-07-28T23:39:43.356Z,1.83
2022-07-28T23:42:09.766Z,1.60
2022-07-28T23:44:37.788Z,1.50
2022-07-28T23:47:04.272Z,1.60
2022-07-28T23:49:30.807Z,1.50
2022-07-28T23:51:57.223Z,1.52
2022-07-28T23:54:23.619Z,1.65
2022-07-28T23:56:55.733Z,1.95
2022-07-28T23:59:22.697Z,1.70
